M I D A S
Marine Information and Data Acquisition System
Tripno 1707 of the Zeeleeuw from 2009-06-08 08:01:10 to 2009-06-08 14:49:19
Back to CruiseResearch ActivitiesStationsMapUnderway DataData graphs

EquipmentUnitsComment
TimeDGPSUTC
LatitudeDGPSDM.mWGS84
LongitudeDGPSDM.mWGS84
HeadingGyrodeg 
SOGDGPSknotsSpeed over ground
COGDGPSdegCourse over ground
DepthEcho soundermeters200 kHz
Missing or incorrect values are displayed as -999
Navigation data collected by the RV Zeeleeuw from 2009-06-08 07:07:44 to 2009-06-08 14:58:17
Time Latitude Longitude Heading SOG COG Depth
2009-06-08 07:08:49 51°13.662 2°55.962 125.6 -999 8 -999
2009-06-08 07:09:49 51°13.662 2°55.962 127.3 -999 14 -999
2009-06-08 07:10:49 51°13.662 2°55.961 126.3 -999 133 -999
2009-06-08 07:11:49 51°13.662 2°55.961 125.2 -999 300 -999
2009-06-08 07:12:49 51°13.662 2°55.961 125.5 -999 231 -999
2009-06-08 07:13:49 51°13.661 2°55.961 126.3 -999 2 -999
2009-06-08 07:14:49 51°13.661 2°55.961 126.4 -999 165 -999
2009-06-08 07:15:49 51°13.661 2°55.961 126.9 -999 322 -999
2009-06-08 07:16:49 51°13.661 2°55.961 127 -999 110 -999
2009-06-08 07:17:49 51°13.662 2°55.961 126.7 -999 116 -999
2009-06-08 07:18:49 51°13.662 2°55.962 127.1 0.1 126 -999
2009-06-08 07:19:49 51°13.662 2°55.962 127 -999 346 -999
2009-06-08 07:20:49 51°13.661 2°55.96 127 -999 146 -999
2009-06-08 07:21:49 51°13.661 2°55.961 127.1 -999 200 -999
2009-06-08 07:22:49 51°13.662 2°55.963 126.7 -999 189 -999
2009-06-08 07:23:49 51°13.662 2°55.963 126.7 -999 77 -999
2009-06-08 07:24:49 51°13.662 2°55.961 127.5 -999 320 -999
2009-06-08 07:25:49 51°13.662 2°55.961 127.4 -999 208 -999
2009-06-08 07:26:49 51°13.661 2°55.961 127.4 -999 156 -999
2009-06-08 07:27:49 51°13.661 2°55.961 127.4 -999 352 -999
2009-06-08 07:28:49 51°13.662 2°55.961 127.4 -999 191 -999
2009-06-08 07:29:49 51°13.662 2°55.961 127.3 -999 161 -999
2009-06-08 07:30:49 51°13.664 2°55.964 127.6 -999 247 -999
2009-06-08 07:31:49 51°13.662 2°55.961 127.5 -999 332 -999
2009-06-08 07:32:49 51°13.659 2°55.959 127.2 0.1 171 -999
2009-06-08 07:33:49 51°13.66 2°55.96 127.7 -999 155 -999
2009-06-08 07:34:49 51°13.661 2°55.961 127.8 -999 138 -999
2009-06-08 07:35:49 51°13.662 2°55.962 127.6 0.1 342 -999
2009-06-08 07:36:49 51°13.663 2°55.963 127.5 -999 348 -999
2009-06-08 07:37:49 51°13.663 2°55.963 127.6 -999 199 -999
2009-06-08 07:38:49 51°13.663 2°55.963 127.2 -999 204 -999
2009-06-08 07:39:49 51°13.663 2°55.962 127.3 -999 342 -999
2009-06-08 07:40:49 51°13.662 2°55.962 127.6 -999 16 -999
2009-06-08 07:41:49 51°13.663 2°55.963 127.8 -999 159 -999
2009-06-08 07:42:49 51°13.664 2°55.964 127.8 -999 168 -999
2009-06-08 07:43:49 51°13.664 2°55.964 128 -999 253 -999
2009-06-08 07:44:49 51°13.664 2°55.964 128 0.1 348 -999
2009-06-08 07:45:49 51°13.662 2°55.961 128.5 -999 215 -999
2009-06-08 07:46:49 51°13.662 2°55.961 128.3 -999 280 4.7
2009-06-08 07:47:46 51°13.662 2°55.961 128.2 -999 273 4.7
2009-06-08 07:48:45 51°13.661 2°55.961 128.3 -999 86 4.7
2009-06-08 07:49:45 51°13.663 2°55.962 128.3 -999 145 4.7
2009-06-08 07:50:45 51°13.661 2°55.962 127.7 -999 140 4.7
2009-06-08 07:51:46 51°13.662 2°55.963 125.6 -999 169 4.7
2009-06-08 07:52:45 51°13.66 2°55.962 125.9 0.1 127 4.8
2009-06-08 07:53:46 51°13.66 2°55.962 127.9 -999 49 4.9
2009-06-08 07:54:46 51°13.66 2°55.961 127.2 -999 208 4.8
2009-06-08 07:55:45 51°13.66 2°55.961 126.3 0.1 169 4.7
2009-06-08 07:56:45 51°13.659 2°55.961 129 0.1 173 4.8
2009-06-08 07:57:45 51°13.659 2°55.96 128.7 -999 182 4.8
2009-06-08 07:58:46 51°13.66 2°55.961 126.7 -999 125 4.9
2009-06-08 07:59:46 51°13.66 2°55.962 121.9 -999 193 4.8
2009-06-08 08:00:46 51°13.659 2°55.962 114.8 -999 134 5
2009-06-08 08:01:49 51°13.672 2°55.923 115.9 2.6 299 -999
2009-06-08 08:02:49 51°13.69 2°55.839 103.2 3.5 283 -999
2009-06-08 08:03:49 51°13.698 2°55.763 89 2.4 274 12.1
2009-06-08 08:04:47 51°13.701 2°55.742 56.8 0.5 13 11.5
2009-06-08 08:05:46 51°13.709 2°55.745 13.2 0.4 207 12
2009-06-08 08:06:46 51°13.703 2°55.739 343.9 0.8 337 5.5
2009-06-08 08:07:46 51°13.765 2°55.684 331.1 6.5 329 9.6
2009-06-08 08:08:45 51°13.874 2°55.597 336.7 8 335 9.9
2009-06-08 08:09:46 51°14 2°55.504 337.2 8.2 336 10.1
2009-06-08 08:10:46 51°14.126 2°55.415 337.6 8.4 336 9.9
2009-06-08 08:11:45 51°14.244 2°55.297 321.1 8.9 320 9.9
2009-06-08 08:12:45 51°14.357 2°55.123 313.7 9.8 311 9.9
2009-06-08 08:13:46 51°14.453 2°54.889 306.1 11 301 10.1
2009-06-08 08:14:46 51°14.57 2°54.649 320.7 11.6 316 9.5
2009-06-08 08:15:45 51°14.724 2°54.481 337.5 11.3 330 9.5
2009-06-08 08:16:46 51°14.889 2°54.321 334.1 11.4 327 8.9
2009-06-08 08:17:46 51°15.042 2°54.15 332.6 11.2 324 8.2
2009-06-08 08:18:46 51°15.194 2°53.978 332.8 11.3 325 8.8
2009-06-08 08:19:45 51°15.348 2°53.815 335.4 11.3 327 9.2
2009-06-08 08:20:45 51°15.509 2°53.656 335.5 11.5 327 10.1
2009-06-08 08:21:46 51°15.675 2°53.498 337.4 11.5 330 10.4
2009-06-08 08:22:46 51°15.839 2°53.341 336.9 11.4 328 10.9
2009-06-08 08:23:46 51°16.003 2°53.181 336.3 11.5 328 11.3
2009-06-08 08:24:45 51°16.164 2°53.025 339.3 11.4 333 11.5
2009-06-08 08:25:46 51°16.338 2°52.897 344.4 11.3 339 11.5
2009-06-08 08:26:45 51°16.51 2°52.793 347 11.2 341 11.4
2009-06-08 08:27:45 51°16.686 2°52.697 346.4 11.1 341 10.3
2009-06-08 08:28:46 51°16.861 2°52.598 346.2 10.9 340 9.6
2009-06-08 08:29:45 51°17.033 2°52.536 354.7 10.6 348 9.4
2009-06-08 08:30:46 51°17.211 2°52.503 1.5 10.6 357 9.5
2009-06-08 08:31:46 51°17.385 2°52.514 15.2 10.4 11 9.6
2009-06-08 08:32:46 51°17.534 2°52.645 41.7 10.3 43 9.9
2009-06-08 08:33:45 51°17.644 2°52.849 51.4 10.5 51 9.9
2009-06-08 08:34:46 51°17.738 2°53.084 66.5 10.4 70 9.6
2009-06-08 08:35:46 51°17.784 2°53.353 73.4 10.5 76 9.5
2009-06-08 08:36:45 51°17.831 2°53.618 71.1 10.5 72 9.3
2009-06-08 08:37:46 51°17.89 2°53.886 67.9 10.5 68 9.3
2009-06-08 08:38:45 51°17.959 2°54.135 61.8 10.4 61 9.3
2009-06-08 08:39:46 51°18.06 2°54.364 53.1 10.5 54 9.4
2009-06-08 08:40:45 51°18.167 2°54.577 51.6 10.5 52 9.5
2009-06-08 08:41:45 51°18.279 2°54.788 51.3 10.4 51 9.7
2009-06-08 08:42:45 51°18.393 2°54.997 49.4 10.4 49 9.8
2009-06-08 08:43:45 51°18.507 2°55.206 51.5 10.5 50 9.9
2009-06-08 08:44:46 51°18.62 2°55.422 51.6 10.4 48 9.9
2009-06-08 08:45:45 51°18.733 2°55.626 49.8 10.5 46 10
2009-06-08 08:46:45 51°18.846 2°55.836 51.8 10.4 50 10
2009-06-08 08:47:45 51°18.958 2°56.046 51.4 10.4 49 10.2
2009-06-08 08:48:45 51°19.07 2°56.254 50.9 10.4 50 10.3
2009-06-08 08:49:46 51°19.186 2°56.463 52 10.3 48 10.1
2009-06-08 08:50:45 51°19.299 2°56.66 49.5 10.2 48 10.5
2009-06-08 08:51:45 51°19.414 2°56.864 50.8 10.3 49 10.2
2009-06-08 08:52:45 51°19.523 2°57.074 53 10.3 51 10.4
2009-06-08 08:53:45 51°19.635 2°57.279 52.3 10.3 50 10.4
2009-06-08 08:54:45 51°19.746 2°57.485 51.2 10.2 49 10.8
2009-06-08 08:55:46 51°19.86 2°57.692 51 10.1 48 10.6
2009-06-08 08:56:45 51°19.973 2°57.89 49.9 10.3 46 10.5
2009-06-08 08:57:46 51°20.09 2°58.096 51.5 10.2 47 10.7
2009-06-08 08:58:45 51°20.202 2°58.293 50.2 10.2 48 10.9
2009-06-08 08:59:46 51°20.316 2°58.504 53.1 10.3 50 10.7
2009-06-08 09:00:45 51°20.428 2°58.705 51.1 10.3 46 10.6
2009-06-08 09:01:46 51°20.544 2°58.914 52.1 10.3 49 10.7
2009-06-08 09:02:46 51°20.66 2°59.118 51.9 10.5 49 11
2009-06-08 09:03:46 51°20.775 2°59.327 51.7 10.5 50 11.1
2009-06-08 09:04:46 51°20.89 2°59.537 51.4 10.5 49 11.1
2009-06-08 09:05:46 51°21.007 2°59.747 51.3 10.7 49 11.2
2009-06-08 09:06:46 51°21.123 2°59.961 51.5 10.7 49 11.2
2009-06-08 09:07:46 51°21.237 3°0.179 51.7 10.6 51 11.1
2009-06-08 09:08:46 51°21.353 3°0.395 52 10.7 50 11.1
2009-06-08 09:09:46 51°21.466 3°0.61 51.2 10.6 50 11.5
2009-06-08 09:10:46 51°21.586 3°0.817 48.1 10.6 46 11.4
2009-06-08 09:11:46 51°21.71 3°1.016 46.6 10.5 43 11.1
2009-06-08 09:12:46 51°21.835 3°1.212 48.2 10.5 48 11.1
2009-06-08 09:13:46 51°21.956 3°1.414 47.6 10.6 46 11.3
2009-06-08 09:14:46 51°22.079 3°1.615 48.2 10.6 47 11.3
2009-06-08 09:15:46 51°22.201 3°1.819 48.3 10.8 45 11.4
2009-06-08 09:16:46 51°22.326 3°2.024 48.1 10.6 47 11
2009-06-08 09:17:46 51°22.447 3°2.226 49.1 10.5 47 11.5
2009-06-08 09:18:46 51°22.568 3°2.43 48.6 10.5 46 10.6
2009-06-08 09:19:46 51°22.669 3°2.601 50.1 6.2 49 10.9
2009-06-08 09:20:46 51°22.724 3°2.694 47.2 4 47 11.6
2009-06-08 09:21:46 51°22.766 3°2.763 46 3.2 43 11.9
2009-06-08 09:22:46 51°22.795 3°2.809 43.2 2.1 44 11.8
2009-06-08 09:23:46 51°22.815 3°2.839 41.8 1.4 43 11.6
2009-06-08 09:24:46 51°22.83 3°2.861 39.2 1.1 44 11.6
2009-06-08 09:25:46 51°22.842 3°2.878 36.9 0.9 47 12.2
2009-06-08 09:26:46 51°22.852 3°2.89 32.5 0.6 29 12.1
2009-06-08 09:27:46 51°22.857 3°2.897 28.6 0.2 43 12.1
2009-06-08 09:28:46 51°22.858 3°2.899 27.8 0.1 132 12.2
2009-06-08 09:29:46 51°22.857 3°2.899 25.1 0.2 209 12.5
2009-06-08 09:30:46 51°22.854 3°2.898 19.5 0.2 179 12.1
2009-06-08 09:31:46 51°22.85 3°2.894 15.3 0.4 219 12.1
2009-06-08 09:32:46 51°22.844 3°2.893 15.2 0.4 197 12.3
2009-06-08 09:33:46 51°22.837 3°2.888 11.8 0.4 200 12.1
2009-06-08 09:34:46 51°22.83 3°2.884 7.5 0.4 204 12
2009-06-08 09:35:46 51°22.823 3°2.878 2.5 0.5 200 12.2
2009-06-08 09:36:46 51°22.816 3°2.873 357.5 0.5 204 12
2009-06-08 09:37:46 51°22.809 3°2.868 353 0.5 202 11.8
2009-06-08 09:38:46 51°22.801 3°2.862 347.7 0.6 202 11.9
2009-06-08 09:39:46 51°22.792 3°2.856 343.6 0.5 202 11.6
2009-06-08 09:40:46 51°22.782 3°2.851 339 0.7 197 11.6
2009-06-08 09:41:46 51°22.772 3°2.847 336.5 0.6 202 11.7
2009-06-08 09:42:46 51°22.763 3°2.843 334.5 0.6 190 11.6
2009-06-08 09:43:46 51°22.754 3°2.84 331.1 0.5 188 11.8
2009-06-08 09:44:46 51°22.744 3°2.839 330.5 0.6 187 11.7
2009-06-08 09:45:46 51°22.733 3°2.838 329.2 0.7 185 12
2009-06-08 09:46:46 51°22.722 3°2.838 333 0.7 179 11.8
2009-06-08 09:47:46 51°22.71 3°2.838 336.2 0.7 179 11.8
2009-06-08 09:48:46 51°22.699 3°2.84 342.6 0.7 176 12
2009-06-08 09:49:46 51°22.699 3°2.835 349.1 0.4 186 11.8
2009-06-08 09:50:46 51°22.683 3°2.834 357.1 0.9 180 4.6
2009-06-08 09:51:46 51°22.668 3°2.834 4.4 0.8 177 12
2009-06-08 09:52:46 51°22.654 3°2.835 10.3 0.8 180 11.6
2009-06-08 09:53:46 51°22.641 3°2.835 15.8 0.7 186 11.9
2009-06-08 09:54:46 51°22.628 3°2.836 19.5 0.8 173 12
2009-06-08 09:55:46 51°22.616 3°2.837 21.7 0.7 190 11.8
2009-06-08 09:56:46 51°22.604 3°2.839 22.8 0.7 180 11.7
2009-06-08 09:57:46 51°22.593 3°2.841 23.2 0.7 166 11.9
2009-06-08 09:58:46 51°22.583 3°2.843 21.8 0.6 162 11.7
2009-06-08 09:59:46 51°22.585 3°2.85 16.8 0.6 36 11.7
2009-06-08 10:00:46 51°22.604 3°2.859 10.6 1.7 12 12.2
2009-06-08 10:01:46 51°22.628 3°2.865 5.2 1 5 11.7
2009-06-08 10:02:46 51°22.641 3°2.866 1.8 0.7 7 11.8
2009-06-08 10:03:46 51°22.65 3°2.866 358.2 0.4 -999 11.9
2009-06-08 10:04:46 51°22.654 3°2.865 353.6 0.2 3 12
2009-06-08 10:05:46 51°22.656 3°2.864 350 0.1 278 11.9
2009-06-08 10:06:46 51°22.655 3°2.864 347.5 0.2 195 12
2009-06-08 10:07:46 51°22.654 3°2.864 345.6 0.1 151 12.1
2009-06-08 10:08:46 51°22.653 3°2.864 342.4 0.1 186 12.2
2009-06-08 10:09:46 51°22.65 3°2.863 339.3 0.2 175 11.9
2009-06-08 10:10:46 51°22.647 3°2.864 337.9 0.2 173 12.1
2009-06-08 10:11:46 51°22.643 3°2.865 337.6 0.2 167 11.9
2009-06-08 10:12:46 51°22.639 3°2.867 337.5 0.3 161 11.9
2009-06-08 10:13:46 51°22.635 3°2.87 335.6 0.3 163 11.9
2009-06-08 10:14:46 51°22.63 3°2.873 333.1 0.3 163 12
2009-06-08 10:15:46 51°22.625 3°2.876 331.3 0.3 157 11.8
2009-06-08 10:16:46 51°22.62 3°2.879 331.6 0.4 164 11.7
2009-06-08 10:17:46 51°22.615 3°2.882 331.9 0.4 154 11.5
2009-06-08 10:18:46 51°22.61 3°2.886 331 0.3 157 11.9
2009-06-08 10:19:46 51°22.605 3°2.891 331.1 0.3 158 11.8
2009-06-08 10:20:46 51°22.6 3°2.898 332.8 0.3 133 11.6
2009-06-08 10:21:46 51°22.596 3°2.905 333.9 0.4 128 11.4
2009-06-08 10:22:46 51°22.591 3°2.912 334.7 0.3 139 11.5
2009-06-08 10:23:46 51°22.587 3°2.919 334.5 0.4 128 11.2
2009-06-08 10:24:46 51°22.582 3°2.927 334 0.4 124 10.8
2009-06-08 10:25:46 51°22.577 3°2.936 333.7 0.4 142 11
2009-06-08 10:26:46 51°22.573 3°2.946 336.2 0.4 121 11.3
2009-06-08 10:27:46 51°22.568 3°2.957 337.9 0.5 128 11.6
2009-06-08 10:28:46 51°22.563 3°2.968 338.9 0.4 127 11.7
2009-06-08 10:29:46 51°22.558 3°2.98 338.3 0.6 118 11.9
2009-06-08 10:30:47 51°22.554 3°2.991 339.4 0.5 115 12.2
2009-06-08 10:31:46 51°22.549 3°3.005 342.1 0.6 117 12.5
2009-06-08 10:32:46 51°22.545 3°3.018 344.1 0.5 119 12.5
2009-06-08 10:33:47 51°22.544 3°3.029 342.7 0.4 42 12.6
2009-06-08 10:34:46 51°22.56 3°3.026 336.3 1.5 340 12.5
2009-06-08 10:35:46 51°22.589 3°3.003 329.2 2.3 328 12.5
2009-06-08 10:36:46 51°22.623 3°2.966 323.8 2.4 321 11.7
2009-06-08 10:37:46 51°22.65 3°2.927 319.8 2.1 317 11.6
2009-06-08 10:38:46 51°22.675 3°2.892 318.4 1.8 311 12.4
2009-06-08 10:39:46 51°22.691 3°2.861 314.4 1.3 313 12.4
2009-06-08 10:40:46 51°22.705 3°2.84 319.1 0.7 323 12.5
2009-06-08 10:41:46 51°22.712 3°2.833 321.3 0.4 347 12.6
2009-06-08 10:42:46 51°22.719 3°2.831 321.2 0.3 4 12.6
2009-06-08 10:43:46 51°22.721 3°2.834 320.3 0.2 66 12.8
2009-06-08 10:44:46 51°22.722 3°2.841 318 0.3 96 12.7
2009-06-08 10:45:46 51°22.72 3°2.85 314.1 0.4 105 12.8
2009-06-08 10:46:46 51°22.717 3°2.864 310.7 0.5 116 12.7
2009-06-08 10:47:46 51°22.712 3°2.878 307.4 0.6 118 12.5
2009-06-08 10:48:46 51°22.706 3°2.895 304.5 0.8 120 12.4
2009-06-08 10:49:46 51°22.701 3°2.915 305.2 1 112 12.5
2009-06-08 10:50:46 51°22.694 3°2.937 308.6 0.9 113 12.4
2009-06-08 10:51:46 51°22.687 3°2.962 314.9 1 115 12.3
2009-06-08 10:52:46 51°22.68 3°2.988 325.2 1.1 110 12.2
2009-06-08 10:53:46 51°22.673 3°3.016 334.5 1.1 112 12.4
2009-06-08 10:54:46 51°22.666 3°3.043 343.6 1.2 110 12.7
2009-06-08 10:55:46 51°22.66 3°3.071 353.1 1.2 108 12.6
2009-06-08 10:56:46 51°22.651 3°3.1 3.6 1.2 114 12.5
2009-06-08 10:57:46 51°22.644 3°3.129 12.2 1.3 113 11.9
2009-06-08 10:58:46 51°22.635 3°3.162 22.2 1.4 114 10.4
2009-06-08 10:59:46 51°22.626 3°3.194 32.7 1.3 111 11.3
2009-06-08 11:00:46 51°22.619 3°3.225 40.5 1.4 110 12.4
2009-06-08 11:01:46 51°22.61 3°3.256 47.6 1.3 115 12.9
2009-06-08 11:02:46 51°22.602 3°3.287 53.5 1.3 112 13.2
2009-06-08 11:03:46 51°22.595 3°3.318 57.1 1.3 109 13.3
2009-06-08 11:04:46 51°22.587 3°3.349 61.6 1.3 113 13.4
2009-06-08 11:05:46 51°22.58 3°3.381 61.4 1.2 104 13.3
2009-06-08 11:06:46 51°22.577 3°3.42 46.8 1.6 86 13.3
2009-06-08 11:07:46 51°22.583 3°3.462 18 1.6 67 13.3
2009-06-08 11:08:46 51°22.596 3°3.493 349.6 1.2 48 13.1
2009-06-08 11:09:46 51°22.608 3°3.511 318.7 0.8 33 13.3
2009-06-08 11:10:46 51°22.614 3°3.514 286.3 0.2 336 13.1
2009-06-08 11:11:46 51°22.617 3°3.506 285.3 0.5 300 13.2
2009-06-08 11:12:46 51°22.623 3°3.491 294.1 0.8 311 13.2
2009-06-08 11:13:46 51°22.633 3°3.473 295.7 0.9 305 13.1
2009-06-08 11:14:46 51°22.643 3°3.453 292.5 0.9 294 13.6
2009-06-08 11:15:46 51°22.652 3°3.432 290.9 1 305 13.6
2009-06-08 11:16:46 51°22.662 3°3.411 291.8 1 311 13.5
2009-06-08 11:17:46 51°22.674 3°3.349 278.2 4.4 276 13.7
2009-06-08 11:18:46 51°22.673 3°3.203 270.2 6.4 268 12.5
2009-06-08 11:19:46 51°22.694 3°3.03 288.6 6.8 288 13.2
2009-06-08 11:20:46 51°22.722 3°2.879 270.2 3.9 266 13.1
2009-06-08 11:21:46 51°22.688 3°2.838 208.7 2.3 180 13.5
2009-06-08 11:22:46 51°22.667 3°2.863 181.9 1.4 109 13.5
2009-06-08 11:23:46 51°22.66 3°2.902 168.7 1.6 105 13.1
2009-06-08 11:24:45 51°22.653 3°2.944 161.1 1.7 103 12.7
2009-06-08 11:25:46 51°22.645 3°2.991 164.3 2 118 13
2009-06-08 11:26:47 51°22.62 3°3.025 207.2 1.7 155 13.7
2009-06-08 11:27:46 51°22.6 3°3.022 253.6 0.8 221 13.6
2009-06-08 11:28:46 51°22.598 3°3.006 275.6 0.6 273 13.2
2009-06-08 11:29:46 51°22.598 3°2.998 269.3 0.2 279 13.3
2009-06-08 11:30:46 51°22.597 3°3.001 269.4 0.4 72 13.3
2009-06-08 11:31:46 51°22.597 3°3.014 276.4 0.6 88 13.7
2009-06-08 11:32:46 51°22.599 3°3.03 279.5 0.4 69 13.9
2009-06-08 11:33:46 51°22.602 3°3.046 281.3 1.4 91 13.9
2009-06-08 11:34:46 51°22.601 3°3.09 284.9 1.9 97 14
2009-06-08 11:35:46 51°22.599 3°3.15 282.8 2.3 93 13
2009-06-08 11:36:46 51°22.599 3°3.206 277.3 1.8 88 11.7
2009-06-08 11:37:46 51°22.602 3°3.247 277 1.3 79 13.3
2009-06-08 11:38:46 51°22.605 3°3.266 276.1 0.2 350 13.8
2009-06-08 11:39:46 51°22.608 3°3.247 273.4 1 287 13.5
2009-06-08 11:40:46 51°22.611 3°3.223 271.8 0.9 281 13
2009-06-08 11:41:46 51°22.614 3°3.207 270.7 0.4 279 12.6
2009-06-08 11:42:45 51°22.616 3°3.201 270.1 0.1 343 12.2
2009-06-08 11:43:45 51°22.617 3°3.205 267.8 0.3 64 12.5
2009-06-08 11:44:45 51°22.619 3°3.215 265.4 0.5 97 12.8
2009-06-08 11:45:46 51°22.618 3°3.231 262.2 0.7 95 13.4
2009-06-08 11:46:46 51°22.618 3°3.254 261.2 0.9 88 13.4
2009-06-08 11:47:46 51°22.618 3°3.281 261 1.1 85 14.3
2009-06-08 11:48:45 51°22.618 3°3.312 260.6 1.2 83 14.1
2009-06-08 11:49:46 51°22.619 3°3.346 261.1 1.3 85 14.3
2009-06-08 11:50:45 51°22.62 3°3.379 262.1 1.1 96 14.3
2009-06-08 11:51:46 51°22.621 3°3.396 264.6 0.4 81 14.2
2009-06-08 11:52:46 51°22.623 3°3.401 271.5 0.1 4 14.2
2009-06-08 11:53:46 51°22.627 3°3.395 268.4 0.4 295 14.2
2009-06-08 11:54:46 51°22.629 3°3.378 270.5 0.9 294 14.3
2009-06-08 11:55:46 51°22.631 3°3.355 263.7 1 261 14.2
2009-06-08 11:56:46 51°22.628 3°3.329 262 1.1 265 14.4
2009-06-08 11:57:46 51°22.625 3°3.301 261.3 1.1 257 14.3
2009-06-08 11:58:46 51°22.622 3°3.271 261.3 1.1 260 14
2009-06-08 11:59:46 51°22.618 3°3.245 260.8 0.7 260 13.9
2009-06-08 12:00:46 51°22.617 3°3.237 260.1 -999 209 13.5
2009-06-08 12:01:46 51°22.616 3°3.243 257.7 0.4 71 13.5
2009-06-08 12:02:46 51°22.615 3°3.26 256.5 0.8 93 14
2009-06-08 12:03:46 51°22.616 3°3.284 257 1 83 14.2
2009-06-08 12:04:46 51°22.618 3°3.313 259.4 1.2 79 14.4
2009-06-08 12:05:46 51°22.621 3°3.348 262.1 1.4 79 14.4
2009-06-08 12:06:46 51°22.624 3°3.386 264.6 1.4 85 14.4
2009-06-08 12:07:46 51°22.629 3°3.426 268.8 1.6 81 14.4
2009-06-08 12:08:46 51°22.634 3°3.468 272.4 1.6 78 14.3
2009-06-08 12:09:46 51°22.641 3°3.471 274.1 1.5 286 14.5
2009-06-08 12:10:46 51°22.638 3°3.405 261.3 3.1 262 14.5
2009-06-08 12:11:46 51°22.626 3°3.314 259.2 3.6 261 14.4
2009-06-08 12:12:46 51°22.62 3°3.24 263.1 1.9 262 13.6
2009-06-08 12:13:46 51°22.624 3°3.21 275.5 0.8 312 13
2009-06-08 12:14:45 51°22.636 3°3.206 284.6 0.8 18 13
2009-06-08 12:15:46 51°22.649 3°3.216 289.3 0.9 33 13.6
2009-06-08 12:16:46 51°22.662 3°3.237 295.4 1.2 51 14
2009-06-08 12:17:46 51°22.674 3°3.264 298.8 1.3 59 14.2
2009-06-08 12:18:46 51°22.686 3°3.298 299.7 1.5 65 14.4
2009-06-08 12:19:46 51°22.698 3°3.336 302.4 1.8 64 14.7
2009-06-08 12:20:46 51°22.708 3°3.377 303.1 1.7 70 14.5
2009-06-08 12:21:46 51°22.716 3°3.419 301.3 1.5 69 14.2
2009-06-08 12:22:46 51°22.726 3°3.437 260.2 0.2 48 14.3
2009-06-08 12:23:45 51°22.716 3°3.421 245.9 1.7 233 14.4
2009-06-08 12:24:46 51°22.695 3°3.371 245.1 2.6 242 14.3
2009-06-08 12:25:46 51°22.676 3°3.318 250.9 1.9 247 14.5
2009-06-08 12:26:46 51°22.666 3°3.277 257.2 1.4 253 14.4
2009-06-08 12:27:46 51°22.662 3°3.253 254.3 0.5 241 14.2
2009-06-08 12:28:45 51°22.658 3°3.25 249.5 0.4 157 14
2009-06-08 12:29:46 51°22.654 3°3.259 247.6 0.6 118 14.1
2009-06-08 12:30:46 51°22.652 3°3.276 247.5 0.9 99 14.4
2009-06-08 12:31:46 51°22.653 3°3.299 251.3 1 88 14.7
2009-06-08 12:32:45 51°22.652 3°3.307 255.9 0.9 261 14.5
2009-06-08 12:33:46 51°22.644 3°3.261 256.9 2.4 258 14.3
2009-06-08 12:34:46 51°22.636 3°3.207 256.8 1.5 259 13.1
2009-06-08 12:35:46 51°22.632 3°3.181 258.4 0.7 261 11.8
2009-06-08 12:36:46 51°22.634 3°3.17 264 0.3 309 11.3
2009-06-08 12:37:46 51°22.64 3°3.17 271.7 0.5 19 10.7
2009-06-08 12:38:46 51°22.65 3°3.179 280 0.7 38 12.2
2009-06-08 12:39:45 51°22.661 3°3.193 289.7 1 43 13
2009-06-08 12:40:46 51°22.673 3°3.216 296.9 1.1 55 13.5
2009-06-08 12:41:46 51°22.685 3°3.243 301.3 1.3 58 14
2009-06-08 12:42:46 51°22.696 3°3.273 303.1 1.3 61 14.5
2009-06-08 12:43:46 51°22.706 3°3.304 304.6 1.3 62 14.6
2009-06-08 12:44:46 51°22.714 3°3.339 305.6 1.6 80 14.7
2009-06-08 12:45:46 51°22.717 3°3.385 294.3 1.6 77 14.6
2009-06-08 12:46:46 51°22.722 3°3.407 254.9 0.4 66 14.4
2009-06-08 12:47:46 51°22.718 3°3.407 241.1 0.6 216 14.5
2009-06-08 12:48:46 51°22.709 3°3.391 243.1 1.1 225 14.6
2009-06-08 12:49:46 51°22.699 3°3.365 246.9 1.3 238 14.5
2009-06-08 12:50:46 51°22.688 3°3.333 250 1.4 241 14.8
2009-06-08 12:51:46 51°22.676 3°3.3 241.9 1.5 224 14.8
2009-06-08 12:52:46 51°22.658 3°3.272 241.2 1.5 233 14.4
2009-06-08 12:53:46 51°22.647 3°3.239 247 1.4 243 13.8
2009-06-08 12:54:46 51°22.638 3°3.203 255.6 1.3 261 13.1
2009-06-08 12:55:46 51°22.637 3°3.179 262.8 0.7 293 11.6
2009-06-08 12:56:46 51°22.643 3°3.169 272.1 0.4 342 10.7
2009-06-08 12:57:46 51°22.654 3°3.171 284.3 0.8 17 11.5
2009-06-08 12:58:46 51°22.666 3°3.182 294.4 0.9 37 12.9
2009-06-08 12:59:46 51°22.677 3°3.199 300.9 1.1 48 13.1
2009-06-08 13:00:46 51°22.688 3°3.22 305.7 1.1 50 13.3
2009-06-08 13:01:46 51°22.698 3°3.243 308.7 1 60 13.9
2009-06-08 13:02:46 51°22.706 3°3.27 310.6 1 67 14.4
2009-06-08 13:03:46 51°22.714 3°3.298 310.7 1.1 71 14.7
2009-06-08 13:04:46 51°22.72 3°3.327 307.4 1.2 71 14.5
2009-06-08 13:05:46 51°22.726 3°3.354 300.4 1 53 14.6
2009-06-08 13:06:46 51°22.733 3°3.354 256.7 0.4 259 15
2009-06-08 13:07:46 51°22.719 3°3.332 230.1 1.7 217 14.7
2009-06-08 13:08:46 51°22.696 3°3.294 236.8 2.2 228 14.6
2009-06-08 13:09:46 51°22.67 3°3.248 233.8 2.5 226 13.8
2009-06-08 13:10:46 51°22.645 3°3.204 240.9 1.7 231 13.2
2009-06-08 13:11:46 51°22.636 3°3.177 251 0.8 248 11.1
2009-06-08 13:12:46 51°22.635 3°3.164 259.9 0.4 312 11.6
2009-06-08 13:13:46 51°22.641 3°3.162 269.8 0.5 17 11.7
2009-06-08 13:14:46 51°22.65 3°3.17 279.3 0.6 41 11
2009-06-08 13:15:46 51°22.66 3°3.183 289.3 0.9 41 12.6
2009-06-08 13:16:46 51°22.671 3°3.2 296.6 0.9 47 13.2
2009-06-08 13:17:46 51°22.681 3°3.221 302.3 1 52 13.6
2009-06-08 13:18:46 51°22.689 3°3.242 304.9 0.9 63 14.1
2009-06-08 13:19:46 51°22.697 3°3.263 307.2 0.9 65 14.1
2009-06-08 13:20:46 51°22.704 3°3.287 306.5 1 67 14.5
2009-06-08 13:21:46 51°22.709 3°3.312 303.8 1 73 14.6
2009-06-08 13:22:46 51°22.714 3°3.339 297.5 0.9 69 14.6
2009-06-08 13:23:46 51°22.721 3°3.339 262.1 0.6 297 14.4
2009-06-08 13:24:46 51°22.71 3°3.321 230.1 1.4 211 14.7
2009-06-08 13:25:46 51°22.69 3°3.287 237.4 2 225 14.6
2009-06-08 13:26:46 51°22.667 3°3.241 239 2.3 238 13.8
2009-06-08 13:27:46 51°22.648 3°3.197 240.8 1.5 236 12.6
2009-06-08 13:28:46 51°22.637 3°3.172 243.1 0.9 235 10.5
2009-06-08 13:29:46 51°22.632 3°3.159 248 0.4 251 12.2
2009-06-08 13:30:46 51°22.634 3°3.168 258.4 0.5 45 11.3
2009-06-08 13:31:46 51°22.63 3°3.153 245.5 1 242 12.7
2009-06-08 13:32:46 51°22.623 3°3.128 247.3 1.1 243 13.5
2009-06-08 13:33:46 51°22.614 3°3.096 245.1 1.6 239 14.3
2009-06-08 13:34:46 51°22.602 3°3.056 242.6 1.7 241 14.2
2009-06-08 13:35:46 51°22.588 3°3.029 239.7 0.7 232 14.3
2009-06-08 13:36:46 51°22.584 3°3.018 251.5 0.2 241 14.3
2009-06-08 13:37:46 51°22.587 3°3.018 261.6 0.3 15 14.1
2009-06-08 13:38:46 51°22.592 3°3.024 272.8 0.5 50 14.4
2009-06-08 13:39:46 51°22.6 3°3.032 282.2 0.6 338 14.2
2009-06-08 13:40:46 51°22.597 3°3 233.7 2 228 13.8
2009-06-08 13:41:46 51°22.561 3°2.938 232.5 3.8 230 13
2009-06-08 13:42:46 51°22.517 3°2.854 233.8 4.3 231 13.8
2009-06-08 13:43:46 51°22.47 3°2.763 233.6 4.5 231 13.8
2009-06-08 13:44:46 51°22.416 3°2.656 233.2 6.6 233 13.5
2009-06-08 13:45:46 51°22.334 3°2.49 232.7 8.7 231 13.7
2009-06-08 13:46:46 51°22.236 3°2.291 233.6 10.1 235 14
2009-06-08 13:47:46 51°22.132 3°2.075 232.8 10.3 231 13.5
2009-06-08 13:48:46 51°22.026 3°1.861 233.8 10.3 231 14
2009-06-08 13:49:46 51°21.92 3°1.647 233 10.4 238 13.8
2009-06-08 13:50:46 51°21.812 3°1.435 232.1 10.3 230 13.9
2009-06-08 13:51:46 51°21.707 3°1.216 233.7 10.4 231 14
2009-06-08 13:52:46 51°21.601 3°0.997 232 10.4 232 13.9
2009-06-08 13:53:46 51°21.493 3°0.783 233.6 10.2 232 13.6
2009-06-08 13:54:46 51°21.387 3°0.568 233.9 10.4 233 13.9
2009-06-08 13:55:46 51°21.282 3°0.349 233 10.5 237 13.6
2009-06-08 13:56:46 51°21.175 3°0.132 234.3 10.3 232 13.6
2009-06-08 13:57:46 51°21.069 2°59.914 233.8 10.5 232 13.8
2009-06-08 13:58:46 51°20.965 2°59.69 234.4 10.5 235 13.5
2009-06-08 13:59:46 51°20.859 2°59.473 232.9 10.3 228 13.5
2009-06-08 14:00:46 51°20.754 2°59.258 232.6 10.2 236 13.5
2009-06-08 14:01:46 51°20.649 2°59.044 233.2 10.3 232 13.6
2009-06-08 14:02:46 51°20.547 2°58.827 233.8 10.2 229 13.7
2009-06-08 14:03:46 51°20.442 2°58.611 234.2 10.3 228 13.6
2009-06-08 14:04:46 51°20.339 2°58.39 233.5 10.4 238 13.3
2009-06-08 14:05:46 51°20.233 2°58.173 232.4 10.3 231 13.3
2009-06-08 14:06:46 51°20.127 2°57.956 231.7 10.5 233 13.4
2009-06-08 14:07:46 51°20.02 2°57.739 233.5 10.4 232 13.4
2009-06-08 14:08:46 51°19.917 2°57.516 233.1 10.4 238 13.3
2009-06-08 14:09:46 51°19.812 2°57.295 233.2 10.4 234 13.2
2009-06-08 14:10:46 51°19.707 2°57.072 234.2 10.5 237 13.4
2009-06-08 14:11:46 51°19.605 2°56.846 234.5 10.5 237 13.2
2009-06-08 14:12:46 51°19.499 2°56.622 232.3 10.7 231 13.5
2009-06-08 14:13:46 51°19.396 2°56.395 232.9 10.6 230 13.3
2009-06-08 14:14:46 51°19.29 2°56.172 232.1 10.6 233 13.2
2009-06-08 14:15:46 51°19.186 2°55.945 234 10.7 234 13.2
2009-06-08 14:16:46 51°19.082 2°55.718 232.4 10.7 230 13.5
2009-06-08 14:17:46 51°18.983 2°55.488 235.8 10.7 234 13.2
2009-06-08 14:18:46 51°18.887 2°55.25 236.3 10.6 242 13.1
2009-06-08 14:19:46 51°18.791 2°55.012 236.6 10.8 237 12.8
2009-06-08 14:20:46 51°18.698 2°54.771 237.4 10.6 238 12.9
2009-06-08 14:21:46 51°18.586 2°54.553 222.1 10.7 218 12.9
2009-06-08 14:22:46 51°18.442 2°54.393 212.9 10.5 212 12.6
2009-06-08 14:23:46 51°18.292 2°54.242 213.7 10.6 208 12.2
2009-06-08 14:24:46 51°18.152 2°54.071 217.2 10.7 219 12.3
2009-06-08 14:25:46 51°18.016 2°53.892 221.2 10.6 217 12.3
2009-06-08 14:26:46 51°17.879 2°53.715 219.3 10.5 216 12.1
2009-06-08 14:27:46 51°17.743 2°53.537 219.9 10.5 217 11.9
2009-06-08 14:28:46 51°17.608 2°53.355 221.3 10.6 221 11.9
2009-06-08 14:29:46 51°17.469 2°53.182 213.5 10.7 212 11.6
2009-06-08 14:30:46 51°17.313 2°53.049 208.1 10.8 208 11.6
2009-06-08 14:31:46 51°17.154 2°52.923 206.3 10.7 200 11.8
2009-06-08 14:32:46 51°16.985 2°52.832 193.2 10.8 189 11.6
2009-06-08 14:33:46 51°16.807 2°52.875 167.7 11.1 162 11.5
2009-06-08 14:34:46 51°16.637 2°53.003 159.4 11.4 154 13.4
2009-06-08 14:35:46 51°16.466 2°53.128 161.8 11.2 156 13.8
2009-06-08 14:36:46 51°16.294 2°53.252 160.3 11.5 154 14
2009-06-08 14:37:46 51°16.12 2°53.362 164.1 11.4 158 13.7
2009-06-08 14:38:46 51°15.945 2°53.471 164.1 11.3 159 13.5
2009-06-08 14:39:46 51°15.768 2°53.581 163.1 11.3 160 13.7
2009-06-08 14:40:46 51°15.591 2°53.683 164.3 11.3 163 13.2
2009-06-08 14:41:46 51°15.411 2°53.779 167.7 11.2 164 11.7
2009-06-08 14:42:46 51°15.228 2°53.855 167.8 11.3 166 11.6
2009-06-08 14:43:46 51°15.048 2°53.937 166 11.1 162 11.7
2009-06-08 14:44:46 51°14.883 2°54.056 154.4 11.1 147 11.4
2009-06-08 14:45:46 51°14.756 2°54.232 141.2 9.5 137 12.4
2009-06-08 14:46:46 51°14.643 2°54.41 139.9 10 133 12.3
2009-06-08 14:47:46 51°14.536 2°54.612 135.4 10.1 130 12.4
2009-06-08 14:48:46 51°14.434 2°54.832 128.1 10.3 125 12.5
2009-06-08 14:49:46 51°14.342 2°55.059 122.4 10 124 12.5
2009-06-08 14:50:46 51°14.261 2°55.244 127.8 6.9 128 12.3
2009-06-08 14:51:46 51°14.168 2°55.371 148.3 7.7 149 12.3
2009-06-08 14:52:46 51°14.049 2°55.462 155.2 8.1 156 11.6
2009-06-08 14:53:46 51°13.93 2°55.549 155.1 7.5 155 12.6
2009-06-08 14:54:46 51°13.822 2°55.632 153.1 7 152 12.2
2009-06-08 14:55:46 51°13.745 2°55.736 132.1 5.8 132 13.4
2009-06-08 14:56:50 51°13.689 2°55.843 122.6 4.5 126 -999
2009-06-08 14:57:50 51°13.666 2°55.929 102.4 2.8 105 -999